sensor_id;sensor_type;location;lat;lon;timestamp;pressure;altitude;pressure_sealevel;temperature;humidity
34073;BME280;20346;52.702;16.886;2023-04-23T05:54:12;100211.00;;;17.87;52.45
34073;BME280;20346;52.702;16.886;2023-04-23T05:57:29;100207.02;;;18.41;52.30
34073;BME280;20346;52.702;16.886;2023-04-23T06:00:28;100207.23;;;18.84;51.99
34073;BME280;20346;52.702;16.886;2023-04-23T06:03:51;100207.94;;;19.41;51.73
34073;BME280;20346;52.702;16.886;2023-04-23T06:41:40;100198.37;;;26.09;47.86
34073;BME280;20346;52.702;16.886;2023-04-23T06:47:25;100192.00;;;27.05;46.95
34073;BME280;20346;52.702;16.886;2023-04-23T06:51:14;100184.88;;;27.57;46.54
34073;BME280;20346;52.702;16.886;2023-04-23T06:54:10;100183.08;;;27.80;46.32
34073;BME280;20346;52.702;16.886;2023-04-23T07:10:05;100173.52;;;30.41;42.66
34073;BME280;20346;52.702;16.886;2023-04-23T07:13:54;100170.50;;;31.12;42.77
34073;BME280;20346;52.702;16.886;2023-04-23T07:17:44;100166.32;;;31.27;42.60
34073;BME280;20346;52.702;16.886;2023-04-23T07:21:31;100165.30;;;31.67;42.03
34073;BME280;20346;52.702;16.886;2023-04-23T07:25:18;100164.70;;;32.50;40.94
34073;BME280;20346;52.702;16.886;2023-04-23T07:29:05;100162.18;;;32.41;40.49
34073;BME280;20346;52.702;16.886;2023-04-23T07:32:52;100158.41;;;32.40;40.03
34073;BME280;20346;52.702;16.886;2023-04-23T07:36:38;100161.27;;;32.16;40.43
34073;BME280;20346;52.702;16.886;2023-04-23T07:40:25;100155.31;;;32.58;39.40
34073;BME280;20346;52.702;16.886;2023-04-23T07:44:12;100150.00;;;31.37;38.55
34073;BME280;20346;52.702;16.886;2023-04-23T07:47:59;100146.56;;;31.30;38.04
34073;BME280;20346;52.702;16.886;2023-04-23T07:51:48;100143.98;;;32.90;36.74
34073;BME280;20346;52.702;16.886;2023-04-23T07:55:35;100139.03;;;34.06;35.46
34073;BME280;20346;52.702;16.886;2023-04-23T07:59:22;100133.88;;;35.11;34.95
34073;BME280;20346;52.702;16.886;2023-04-23T08:03:09;100127.78;;;36.28;34.46
34073;BME280;20346;52.702;16.886;2023-04-23T08:06:55;100128.62;;;37.32;34.55
34073;BME280;20346;52.702;16.886;2023-04-23T08:10:42;100126.09;;;38.35;33.63
34073;BME280;20346;52.702;16.886;2023-04-23T08:14:29;100121.67;;;39.12;33.09
34073;BME280;20346;52.702;16.886;2023-04-23T08:18:16;100119.34;;;39.57;32.21
34073;BME280;20346;52.702;16.886;2023-04-23T08:22:03;100116.62;;;40.22;31.27
34073;BME280;20346;52.702;16.886;2023-04-23T08:25:50;100111.23;;;40.40;30.87
34073;BME280;20346;52.702;16.886;2023-04-23T08:29:37;100112.36;;;40.45;29.56
34073;BME280;20346;52.702;16.886;2023-04-23T08:33:24;100108.40;;;40.32;29.52
34073;BME280;20346;52.702;16.886;2023-04-23T08:37:10;100109.00;;;40.71;29.32
34073;BME280;20346;52.702;16.886;2023-04-23T08:40:57;100104.60;;;40.73;27.89
34073;BME280;20346;52.702;16.886;2023-04-23T08:44:43;100097.14;;;37.50;27.85
34073;BME280;20346;52.702;16.886;2023-04-23T08:48:32;100086.31;;;34.10;27.79
34073;BME280;20346;52.702;16.886;2023-04-23T08:52:23;100081.77;;;31.47;27.33
34073;BME280;20346;52.702;16.886;2023-04-23T08:56:09;100079.88;;;29.41;27.28
34073;BME280;20346;52.702;16.886;2023-04-23T09:37:43;100027.70;;;22.47;29.21
34073;BME280;20346;52.702;16.886;2023-04-23T09:55:57;100005.14;;;22.06;29.84
34073;BME280;20346;52.702;16.886;2023-04-23T09:59:28;100002.36;;;22.06;30.16
34073;BME280;20346;52.702;16.886;2023-04-23T10:04:54;99991.17;;;22.00;30.20
34073;BME280;20346;52.702;16.886;2023-04-23T10:08:40;99989.38;;;22.01;30.57
34073;BME280;20346;52.702;16.886;2023-04-23T10:12:27;99986.10;;;22.05;30.77
34073;BME280;20346;52.702;16.886;2023-04-23T10:16:14;99978.27;;;22.09;30.64
34073;BME280;20346;52.702;16.886;2023-04-23T10:20:00;99977.42;;;22.08;30.76
34073;BME280;20346;52.702;16.886;2023-04-23T10:23:46;99982.34;;;22.10;31.05
34073;BME280;20346;52.702;16.886;2023-04-23T10:27:32;99984.96;;;22.16;31.21
34073;BME280;20346;52.702;16.886;2023-04-23T10:30:28;99984.48;;;22.20;31.21
34073;BME280;20346;52.702;16.886;2023-04-23T10:34:15;99977.39;;;22.21;31.48
34073;BME280;20346;52.702;16.886;2023-04-23T10:40:35;99974.23;;;22.30;31.53
34073;BME280;20346;52.702;16.886;2023-04-23T10:44:33;99971.52;;;22.26;31.60
34073;BME280;20346;52.702;16.886;2023-04-23T10:48:26;99970.54;;;22.21;31.78
34073;BME280;20346;52.702;16.886;2023-04-23T10:52:23;99970.10;;;22.17;31.92
34073;BME280;20346;52.702;16.886;2023-04-23T10:56:29;99968.30;;;22.22;31.98
34073;BME280;20346;52.702;16.886;2023-04-23T11:00:27;99970.71;;;22.23;31.97
34073;BME280;20346;52.702;16.886;2023-04-23T11:08:13;99973.81;;;22.15;32.46
34073;BME280;20346;52.702;16.886;2023-04-23T11:13:52;99974.05;;;22.13;32.53
34073;BME280;20346;52.702;16.886;2023-04-23T11:25:47;99980.91;;;22.11;32.82
34073;BME280;20346;52.702;16.886;2023-04-23T11:29:08;99982.11;;;22.11;32.95
34073;BME280;20346;52.702;16.886;2023-04-23T11:32:58;99982.20;;;22.15;33.14
34073;BME280;20346;52.702;16.886;2023-04-23T11:36:50;99980.05;;;22.25;33.21
34073;BME280;20346;52.702;16.886;2023-04-23T11:40:34;99981.55;;;22.33;33.28
34073;BME280;20346;52.702;16.886;2023-04-23T11:49:36;99976.61;;;22.40;33.55
34073;BME280;20346;52.702;16.886;2023-04-23T11:53:26;99986.70;;;22.36;33.75
34073;BME280;20346;52.702;16.886;2023-04-23T11:59:54;99993.31;;;22.33;33.99
34073;BME280;20346;52.702;16.886;2023-04-23T12:02:58;99990.11;;;22.29;34.04
34073;BME280;20346;52.702;16.886;2023-04-23T12:14:08;99987.64;;;22.22;34.66
34073;BME280;20346;52.702;16.886;2023-04-23T12:18:12;99988.70;;;22.26;34.95
34073;BME280;20346;52.702;16.886;2023-04-23T12:22:07;99985.66;;;22.32;34.91
34073;BME280;20346;52.702;16.886;2023-04-23T12:25:58;99993.15;;;22.33;35.22
34073;BME280;20346;52.702;16.886;2023-04-23T12:29:48;99987.45;;;22.34;35.33
34073;BME280;20346;52.702;16.886;2023-04-23T12:33:36;99990.25;;;22.36;35.54
34073;BME280;20346;52.702;16.886;2023-04-23T12:37:28;99987.79;;;22.38;35.70
34073;BME280;20346;52.702;16.886;2023-04-23T12:41:21;99985.55;;;22.40;35.75
34073;BME280;20346;52.702;16.886;2023-04-23T12:45:22;99988.71;;;22.37;35.88
34073;BME280;20346;52.702;16.886;2023-04-23T12:49:14;99989.07;;;22.27;36.07
34073;BME280;20346;52.702;16.886;2023-04-23T12:53:02;99991.33;;;22.10;36.33
34073;BME280;20346;52.702;16.886;2023-04-23T12:56:52;99990.91;;;21.92;36.69
34073;BME280;20346;52.702;16.886;2023-04-23T13:00:42;99988.16;;;21.79;36.72
34073;BME280;20346;52.702;16.886;2023-04-23T13:04:35;99995.15;;;21.60;36.78
34073;BME280;20346;52.702;16.886;2023-04-23T13:08:36;99997.53;;;21.41;36.88
34073;BME280;20346;52.702;16.886;2023-04-23T13:15:10;100002.65;;;21.13;37.32
34073;BME280;20346;52.702;16.886;2023-04-23T13:18:59;100009.20;;;21.02;37.38
34073;BME280;20346;52.702;16.886;2023-04-23T13:22:48;100011.21;;;20.86;37.71
34073;BME280;20346;52.702;16.886;2023-04-23T13:26:44;100015.57;;;20.66;37.89
34073;BME280;20346;52.702;16.886;2023-04-23T13:30:38;100018.33;;;20.54;38.25
34073;BME280;20346;52.702;16.886;2023-04-23T13:34:27;100015.42;;;20.42;38.54
34073;BME280;20346;52.702;16.886;2023-04-23T13:38:24;100023.15;;;20.36;39.33
34073;BME280;20346;52.702;16.886;2023-04-23T13:42:17;100020.53;;;20.33;39.01
34073;BME280;20346;52.702;16.886;2023-04-23T13:46:05;100018.36;;;20.37;39.43
34073;BME280;20346;52.702;16.886;2023-04-23T13:49:56;100016.34;;;20.47;39.62
34073;BME280;20346;52.702;16.886;2023-04-23T13:53:50;100012.81;;;20.55;39.86
34073;BME280;20346;52.702;16.886;2023-04-23T13:57:47;100011.32;;;20.62;39.86
34073;BME280;20346;52.702;16.886;2023-04-23T14:01:38;100010.43;;;20.62;39.98
34073;BME280;20346;52.702;16.886;2023-04-23T14:05:27;100013.44;;;20.61;39.98
34073;BME280;20346;52.702;16.886;2023-04-23T17:17:44;99972.69;;;18.28;49.61
34073;BME280;20346;52.702;16.886;2023-04-23T17:21:30;99972.35;;;18.19;49.93
34073;BME280;20346;52.702;16.886;2023-04-23T17:25:17;99967.27;;;18.11;50.13
34073;BME280;20346;52.702;16.886;2023-04-23T17:29:04;99968.43;;;18.05;50.20
34073;BME280;20346;52.702;16.886;2023-04-23T17:32:50;99965.46;;;17.99;50.29
34073;BME280;20346;52.702;16.886;2023-04-23T17:36:37;99966.50;;;17.93;50.33
34073;BME280;20346;52.702;16.886;2023-04-23T17:40:24;99967.20;;;17.90;50.54
34073;BME280;20346;52.702;16.886;2023-04-23T17:44:11;99964.73;;;17.88;50.53
34073;BME280;20346;52.702;16.886;2023-04-23T17:47:58;99964.86;;;17.85;50.67
34073;BME280;20346;52.702;16.886;2023-04-23T17:51:44;99965.81;;;17.80;50.82
34073;BME280;20346;52.702;16.886;2023-04-23T17:55:31;99969.38;;;17.76;50.91
34073;BME280;20346;52.702;16.886;2023-04-23T17:59:19;99971.64;;;17.73;51.00
34073;BME280;20346;52.702;16.886;2023-04-23T18:03:06;99977.73;;;17.70;51.05
34073;BME280;20346;52.702;16.886;2023-04-23T18:06:53;99976.57;;;17.69;51.32
34073;BME280;20346;52.702;16.886;2023-04-23T18:10:40;99981.14;;;17.66;51.41
34073;BME280;20346;52.702;16.886;2023-04-23T18:14:26;99991.92;;;17.63;51.54
34073;BME280;20346;52.702;16.886;2023-04-23T18:23:23;99999.17;;;17.54;51.63
34073;BME280;20346;52.702;16.886;2023-04-23T18:34:50;100007.83;;;17.46;52.18
34073;BME280;20346;52.702;16.886;2023-04-23T18:40:48;100013.54;;;17.37;52.31
34073;BME280;20346;52.702;16.886;2023-04-23T18:46:44;100012.79;;;17.28;52.48
34073;BME280;20346;52.702;16.886;2023-04-23T18:50:43;100013.10;;;17.23;52.56
34073;BME280;20346;52.702;16.886;2023-04-23T18:54:32;100019.55;;;17.18;52.82
34073;BME280;20346;52.702;16.886;2023-04-23T18:58:22;100014.30;;;17.10;53.08
34073;BME280;20346;52.702;16.886;2023-04-23T19:00:57;100012.83;;;17.05;52.98
34073;BME280;20346;52.702;16.886;2023-04-23T19:04:46;100011.63;;;17.04;53.12
34073;BME280;20346;52.702;16.886;2023-04-23T19:08:33;100010.42;;;16.97;53.35
34073;BME280;20346;52.702;16.886;2023-04-23T19:12:19;100012.23;;;16.90;53.36
34073;BME280;20346;52.702;16.886;2023-04-23T19:15:40;100011.88;;;16.86;53.43
34073;BME280;20346;52.702;16.886;2023-04-23T19:19:29;100014.59;;;16.84;53.60
34073;BME280;20346;52.702;16.886;2023-04-23T19:23:15;100008.88;;;16.84;53.60
34073;BME280;20346;52.702;16.886;2023-04-23T22:51:12;99904.13;;;13.59;59.28
